sensor_id;sensor_type;location;lat;lon;timestamp;temperature;humidity
975;DHT22;6115;49.296;10.602;2024-02-21T00:01:40;7.10;63.40
975;DHT22;6115;49.296;10.602;2024-02-21T00:06:40;7.10;63.40
975;DHT22;6115;49.296;10.602;2024-02-21T00:11:41;7.10;63.40
975;DHT22;6115;49.296;10.602;2024-02-21T00:16:41;7.10;63.20
975;DHT22;6115;49.296;10.602;2024-02-21T00:21:42;7.00;63.50
975;DHT22;6115;49.296;10.602;2024-02-21T00:26:42;7.00;63.50
975;DHT22;6115;49.296;10.602;2024-02-21T00:31:43;7.00;63.70
975;DHT22;6115;49.296;10.602;2024-02-21T00:36:45;7.00;63.70
975;DHT22;6115;49.296;10.602;2024-02-21T00:41:45;7.00;63.70
975;DHT22;6115;49.296;10.602;2024-02-21T00:46:46;7.00;63.70
975;DHT22;6115;49.296;10.602;2024-02-21T00:51:47;7.00;64.00
975;DHT22;6115;49.296;10.602;2024-02-21T00:56:48;7.00;64.10
975;DHT22;6115;49.296;10.602;2024-02-21T01:01:48;7.00;64.30
975;DHT22;6115;49.296;10.602;2024-02-21T01:06:49;7.00;64.30
975;DHT22;6115;49.296;10.602;2024-02-21T01:11:50;7.00;64.40
975;DHT22;6115;49.296;10.602;2024-02-21T01:16:50;7.00;64.30
975;DHT22;6115;49.296;10.602;2024-02-21T01:21:51;6.90;64.40
975;DHT22;6115;49.296;10.602;2024-02-21T01:26:51;6.90;64.50
975;DHT22;6115;49.296;10.602;2024-02-21T01:31:52;6.80;64.80
975;DHT22;6115;49.296;10.602;2024-02-21T01:36:52;6.80;65.30
975;DHT22;6115;49.296;10.602;2024-02-21T01:41:53;6.90;65.00
975;DHT22;6115;49.296;10.602;2024-02-21T01:46:53;6.90;65.10
975;DHT22;6115;49.296;10.602;2024-02-21T01:51:54;6.90;65.20
975;DHT22;6115;49.296;10.602;2024-02-21T01:56:55;6.80;65.40
975;DHT22;6115;49.296;10.602;2024-02-21T02:01:55;6.80;65.60
975;DHT22;6115;49.296;10.602;2024-02-21T02:07:00;6.90;65.70
975;DHT22;6115;49.296;10.602;2024-02-21T02:12:03;6.80;65.60
975;DHT22;6115;49.296;10.602;2024-02-21T02:17:03;6.80;65.60
975;DHT22;6115;49.296;10.602;2024-02-21T02:22:17;6.90;65.60
975;DHT22;6115;49.296;10.602;2024-02-21T02:27:21;7.00;65.30
975;DHT22;6115;49.296;10.602;2024-02-21T02:32:23;6.90;65.10
975;DHT22;6115;49.296;10.602;2024-02-21T02:37:23;7.00;65.20
975;DHT22;6115;49.296;10.602;2024-02-21T02:42:24;6.90;65.00
975;DHT22;6115;49.296;10.602;2024-02-21T02:47:24;6.90;65.10
975;DHT22;6115;49.296;10.602;2024-02-21T02:52:25;7.00;65.00
975;DHT22;6115;49.296;10.602;2024-02-21T02:57:25;7.00;64.70
975;DHT22;6115;49.296;10.602;2024-02-21T03:02:26;7.00;64.80
975;DHT22;6115;49.296;10.602;2024-02-21T03:07:27;7.00;64.70
975;DHT22;6115;49.296;10.602;2024-02-21T03:12:27;7.00;64.60
975;DHT22;6115;49.296;10.602;2024-02-21T03:17:29;7.00;64.60
975;DHT22;6115;49.296;10.602;2024-02-21T03:22:30;7.00;64.50
975;DHT22;6115;49.296;10.602;2024-02-21T03:27:30;7.00;64.70
975;DHT22;6115;49.296;10.602;2024-02-21T03:32:31;7.10;64.60
975;DHT22;6115;49.296;10.602;2024-02-21T03:37:31;7.00;64.60
975;DHT22;6115;49.296;10.602;2024-02-21T03:42:32;6.90;64.80
975;DHT22;6115;49.296;10.602;2024-02-21T03:47:32;6.90;65.30
975;DHT22;6115;49.296;10.602;2024-02-21T03:52:33;6.90;65.40
975;DHT22;6115;49.296;10.602;2024-02-21T03:57:33;7.00;65.30
975;DHT22;6115;49.296;10.602;2024-02-21T04:02:34;6.90;65.90
975;DHT22;6115;49.296;10.602;2024-02-21T04:07:34;6.70;67.10
975;DHT22;6115;49.296;10.602;2024-02-21T04:12:35;6.60;68.60
975;DHT22;6115;49.296;10.602;2024-02-21T04:17:36;6.50;70.00
975;DHT22;6115;49.296;10.602;2024-02-21T04:22:37;6.30;71.60
975;DHT22;6115;49.296;10.602;2024-02-21T04:27:41;6.30;73.00
975;DHT22;6115;49.296;10.602;2024-02-21T04:32:42;6.20;74.10
975;DHT22;6115;49.296;10.602;2024-02-21T04:37:42;6.20;74.70
975;DHT22;6115;49.296;10.602;2024-02-21T04:42:43;6.20;75.10
975;DHT22;6115;49.296;10.602;2024-02-21T04:47:44;6.20;75.50
975;DHT22;6115;49.296;10.602;2024-02-21T04:52:44;6.10;75.80
975;DHT22;6115;49.296;10.602;2024-02-21T04:57:45;6.10;76.10
975;DHT22;6115;49.296;10.602;2024-02-21T05:02:45;6.10;76.70
975;DHT22;6115;49.296;10.602;2024-02-21T05:07:46;6.10;76.00
975;DHT22;6115;49.296;10.602;2024-02-21T05:12:47;6.00;75.50
975;DHT22;6115;49.296;10.602;2024-02-21T05:17:47;5.90;76.00
975;DHT22;6115;49.296;10.602;2024-02-21T05:22:48;5.80;75.90
975;DHT22;6115;49.296;10.602;2024-02-21T05:27:51;5.70;76.50
975;DHT22;6115;49.296;10.602;2024-02-21T05:32:53;5.60;77.10
975;DHT22;6115;49.296;10.602;2024-02-21T05:37:53;5.60;77.50
975;DHT22;6115;49.296;10.602;2024-02-21T05:42:54;5.50;77.50
975;DHT22;6115;49.296;10.602;2024-02-21T05:47:55;5.50;77.40
975;DHT22;6115;49.296;10.602;2024-02-21T05:52:55;5.50;77.30
975;DHT22;6115;49.296;10.602;2024-02-21T05:57:56;5.50;77.30
975;DHT22;6115;49.296;10.602;2024-02-21T06:02:57;5.50;77.20
975;DHT22;6115;49.296;10.602;2024-02-21T06:07:57;5.50;76.90
975;DHT22;6115;49.296;10.602;2024-02-21T06:12:58;5.40;77.10
975;DHT22;6115;49.296;10.602;2024-02-21T06:17:58;5.40;77.10
975;DHT22;6115;49.296;10.602;2024-02-21T06:22:59;5.40;77.20
975;DHT22;6115;49.296;10.602;2024-02-21T06:28:00;5.30;77.20
975;DHT22;6115;49.296;10.602;2024-02-21T06:33:00;5.30;77.30
975;DHT22;6115;49.296;10.602;2024-02-21T06:38:03;5.30;77.30
975;DHT22;6115;49.296;10.602;2024-02-21T06:43:03;5.40;77.10
975;DHT22;6115;49.296;10.602;2024-02-21T06:48:04;5.20;76.40
975;DHT22;6115;49.296;10.602;2024-02-21T06:53:05;5.20;76.30
975;DHT22;6115;49.296;10.602;2024-02-21T06:58:06;5.20;76.50
975;DHT22;6115;49.296;10.602;2024-02-21T07:03:08;5.10;76.30
975;DHT22;6115;49.296;10.602;2024-02-21T07:08:09;5.20;76.30
975;DHT22;6115;49.296;10.602;2024-02-21T07:13:09;5.20;76.30
975;DHT22;6115;49.296;10.602;2024-02-21T07:18:10;5.30;76.10
975;DHT22;6115;49.296;10.602;2024-02-21T07:23:11;5.40;75.80
975;DHT22;6115;49.296;10.602;2024-02-21T07:28:12;5.40;75.60
975;DHT22;6115;49.296;10.602;2024-02-21T07:33:13;5.50;75.60
975;DHT22;6115;49.296;10.602;2024-02-21T07:38:13;5.60;74.80
975;DHT22;6115;49.296;10.602;2024-02-21T07:43:14;5.70;74.60
975;DHT22;6115;49.296;10.602;2024-02-21T07:48:15;5.80;74.00
975;DHT22;6115;49.296;10.602;2024-02-21T07:53:15;5.90;72.90
975;DHT22;6115;49.296;10.602;2024-02-21T07:58:16;5.90;71.20
975;DHT22;6115;49.296;10.602;2024-02-21T08:03:16;5.80;71.20
975;DHT22;6115;49.296;10.602;2024-02-21T08:08:18;5.80;71.10
975;DHT22;6115;49.296;10.602;2024-02-21T08:13:20;5.90;71.20
975;DHT22;6115;49.296;10.602;2024-02-21T08:18:21;6.20;70.90
975;DHT22;6115;49.296;10.602;2024-02-21T08:23:23;6.30;70.20
975;DHT22;6115;49.296;10.602;2024-02-21T08:28:24;6.50;68.60
975;DHT22;6115;49.296;10.602;2024-02-21T08:33:25;6.80;68.70
975;DHT22;6115;49.296;10.602;2024-02-21T08:38:26;7.30;67.60
975;DHT22;6115;49.296;10.602;2024-02-21T08:43:26;7.70;66.40
975;DHT22;6115;49.296;10.602;2024-02-21T08:48:27;7.90;63.30
975;DHT22;6115;49.296;10.602;2024-02-21T08:53:27;8.10;62.00
975;DHT22;6115;49.296;10.602;2024-02-21T08:58:29;8.30;61.30
975;DHT22;6115;49.296;10.602;2024-02-21T09:03:33;8.40;60.00
975;DHT22;6115;49.296;10.602;2024-02-21T09:08:34;8.40;59.80
975;DHT22;6115;49.296;10.602;2024-02-21T09:13:34;8.40;59.40
975;DHT22;6115;49.296;10.602;2024-02-21T09:18:35;8.60;59.10
975;DHT22;6115;49.296;10.602;2024-02-21T09:23:35;8.70;58.30
975;DHT22;6115;49.296;10.602;2024-02-21T09:28:36;8.80;56.80
975;DHT22;6115;49.296;10.602;2024-02-21T09:33:36;8.70;57.00
975;DHT22;6115;49.296;10.602;2024-02-21T09:38:39;8.90;56.30
975;DHT22;6115;49.296;10.602;2024-02-21T09:43:41;9.10;57.90
975;DHT22;6115;49.296;10.602;2024-02-21T09:49:07;9.50;56.80
975;DHT22;6115;49.296;10.602;2024-02-21T09:54:13;9.80;55.70
975;DHT22;6115;49.296;10.602;2024-02-21T09:59:17;10.30;53.50
975;DHT22;6115;49.296;10.602;2024-02-21T10:04:18;10.50;52.30
975;DHT22;6115;49.296;10.602;2024-02-21T10:09:26;10.10;51.40
975;DHT22;6115;49.296;10.602;2024-02-21T10:14:29;10.60;52.20
975;DHT22;6115;49.296;10.602;2024-02-21T10:19:30;11.10;51.40
975;DHT22;6115;49.296;10.602;2024-02-21T10:24:31;11.00;49.40
975;DHT22;6115;49.296;10.602;2024-02-21T10:29:35;10.80;50.30
975;DHT22;6115;49.296;10.602;2024-02-21T10:34:37;11.30;50.00
975;DHT22;6115;49.296;10.602;2024-02-21T10:39:39;11.40;49.60
975;DHT22;6115;49.296;10.602;2024-02-21T10:44:40;11.40;49.50
975;DHT22;6115;49.296;10.602;2024-02-21T10:49:42;11.30;48.20
975;DHT22;6115;49.296;10.602;2024-02-21T10:55:01;11.70;48.70
975;DHT22;6115;49.296;10.602;2024-02-21T11:00:04;12.00;48.40
975;DHT22;6115;49.296;10.602;2024-02-21T11:05:08;12.60;47.60
975;DHT22;6115;49.296;10.602;2024-02-21T11:10:22;12.20;46.20
975;DHT22;6115;49.296;10.602;2024-02-21T11:15:26;12.60;46.60
975;DHT22;6115;49.296;10.602;2024-02-21T11:20:37;12.50;45.10
975;DHT22;6115;49.296;10.602;2024-02-21T11:25:38;12.50;44.10
975;DHT22;6115;49.296;10.602;2024-02-21T11:30:39;12.80;43.30
975;DHT22;6115;49.296;10.602;2024-02-21T11:35:40;12.90;44.00
975;DHT22;6115;49.296;10.602;2024-02-21T11:40:44;13.60;44.00
975;DHT22;6115;49.296;10.602;2024-02-21T11:45:45;14.10;41.50
975;DHT22;6115;49.296;10.602;2024-02-21T11:50:53;13.90;41.00
975;DHT22;6115;49.296;10.602;2024-02-21T11:55:55;14.20;40.40
975;DHT22;6115;49.296;10.602;2024-02-21T12:00:57;14.60;39.40
975;DHT22;6115;49.296;10.602;2024-02-21T12:05:58;14.30;38.00
975;DHT22;6115;49.296;10.602;2024-02-21T12:11:00;13.50;38.50
975;DHT22;6115;49.296;10.602;2024-02-21T12:16:00;13.50;37.80
975;DHT22;6115;49.296;10.602;2024-02-21T12:21:01;13.10;38.30
975;DHT22;6115;49.296;10.602;2024-02-21T12:26:02;13.30;39.10
975;DHT22;6115;49.296;10.602;2024-02-21T12:31:05;13.40;36.60
975;DHT22;6115;49.296;10.602;2024-02-21T12:36:05;13.50;36.20
975;DHT22;6115;49.296;10.602;2024-02-21T12:41:06;13.70;35.90
975;DHT22;6115;49.296;10.602;2024-02-21T12:46:08;13.90;36.00
975;DHT22;6115;49.296;10.602;2024-02-21T12:51:08;13.20;37.10
975;DHT22;6115;49.296;10.602;2024-02-21T12:56:09;13.30;38.00
975;DHT22;6115;49.296;10.602;2024-02-21T13:01:10;13.20;38.50
975;DHT22;6115;49.296;10.602;2024-02-21T13:06:10;13.20;38.50
975;DHT22;6115;49.296;10.602;2024-02-21T13:11:12;13.40;38.10
975;DHT22;6115;49.296;10.602;2024-02-21T13:16:12;13.60;37.80
975;DHT22;6115;49.296;10.602;2024-02-21T13:21:13;13.50;38.40
975;DHT22;6115;49.296;10.602;2024-02-21T13:26:14;13.50;38.20
975;DHT22;6115;49.296;10.602;2024-02-21T13:31:15;13.90;37.30
975;DHT22;6115;49.296;10.602;2024-02-21T13:36:19;13.80;37.20
975;DHT22;6115;49.296;10.602;2024-02-21T13:41:19;14.10;35.60
975;DHT22;6115;49.296;10.602;2024-02-21T13:46:22;13.90;35.40
975;DHT22;6115;49.296;10.602;2024-02-21T13:51:22;13.20;34.80
975;DHT22;6115;49.296;10.602;2024-02-21T13:56:23;13.30;35.70
975;DHT22;6115;49.296;10.602;2024-02-21T14:01:24;13.20;34.90
975;DHT22;6115;49.296;10.602;2024-02-21T14:06:24;13.40;34.80
975;DHT22;6115;49.296;10.602;2024-02-21T14:11:25;13.60;34.10
975;DHT22;6115;49.296;10.602;2024-02-21T14:16:27;13.70;33.30
975;DHT22;6115;49.296;10.602;2024-02-21T14:21:27;13.70;33.60
975;DHT22;6115;49.296;10.602;2024-02-21T14:26:29;13.80;32.80
975;DHT22;6115;49.296;10.602;2024-02-21T14:31:31;13.80;33.20
975;DHT22;6115;49.296;10.602;2024-02-21T14:36:32;13.60;34.00
975;DHT22;6115;49.296;10.602;2024-02-21T14:41:33;13.50;33.70
975;DHT22;6115;49.296;10.602;2024-02-21T14:46:37;13.10;34.70
975;DHT22;6115;49.296;10.602;2024-02-21T14:51:38;13.00;34.70
975;DHT22;6115;49.296;10.602;2024-02-21T14:56:39;12.90;34.60
975;DHT22;6115;49.296;10.602;2024-02-21T15:01:39;13.10;34.70
975;DHT22;6115;49.296;10.602;2024-02-21T15:06:40;13.00;34.70
975;DHT22;6115;49.296;10.602;2024-02-21T15:11:41;13.00;34.70
975;DHT22;6115;49.296;10.602;2024-02-21T15:16:43;13.10;33.90
975;DHT22;6115;49.296;10.602;2024-02-21T15:21:44;12.80;33.90
975;DHT22;6115;49.296;10.602;2024-02-21T15:26:45;12.70;34.10
975;DHT22;6115;49.296;10.602;2024-02-21T15:31:45;12.70;34.40
975;DHT22;6115;49.296;10.602;2024-02-21T15:36:46;12.80;34.50
975;DHT22;6115;49.296;10.602;2024-02-21T15:41:47;12.70;34.40
975;DHT22;6115;49.296;10.602;2024-02-21T15:46:49;12.60;34.30
975;DHT22;6115;49.296;10.602;2024-02-21T15:51:51;12.40;34.40
975;DHT22;6115;49.296;10.602;2024-02-21T15:56:51;12.20;35.10
975;DHT22;6115;49.296;10.602;2024-02-21T16:01:52;12.20;35.90
975;DHT22;6115;49.296;10.602;2024-02-21T16:06:52;12.30;38.10
975;DHT22;6115;49.296;10.602;2024-02-21T16:11:53;12.20;41.00
975;DHT22;6115;49.296;10.602;2024-02-21T16:16:54;12.20;43.40
975;DHT22;6115;49.296;10.602;2024-02-21T16:21:57;12.00;45.80
975;DHT22;6115;49.296;10.602;2024-02-21T16:26:58;11.70;47.20
975;DHT22;6115;49.296;10.602;2024-02-21T16:31:58;11.50;47.60
975;DHT22;6115;49.296;10.602;2024-02-21T16:36:59;11.30;48.10
975;DHT22;6115;49.296;10.602;2024-02-21T16:41:59;11.20;48.50
975;DHT22;6115;49.296;10.602;2024-02-21T16:47:04;11.00;49.10
975;DHT22;6115;49.296;10.602;2024-02-21T16:52:05;10.90;49.40
975;DHT22;6115;49.296;10.602;2024-02-21T16:57:05;10.80;49.70
975;DHT22;6115;49.296;10.602;2024-02-21T17:02:07;10.50;50.30
975;DHT22;6115;49.296;10.602;2024-02-21T17:07:07;10.40;50.90
975;DHT22;6115;49.296;10.602;2024-02-21T17:12:08;10.20;50.70
975;DHT22;6115;49.296;10.602;2024-02-21T17:17:08;10.10;50.60
975;DHT22;6115;49.296;10.602;2024-02-21T17:22:09;10.00;50.50
975;DHT22;6115;49.296;10.602;2024-02-21T17:27:10;10.00;50.50
975;DHT22;6115;49.296;10.602;2024-02-21T17:32:11;9.80;51.30
975;DHT22;6115;49.296;10.602;2024-02-21T17:37:11;9.80;51.30
975;DHT22;6115;49.296;10.602;2024-02-21T17:42:12;9.80;51.40
975;DHT22;6115;49.296;10.602;2024-02-21T17:47:12;9.70;51.80
975;DHT22;6115;49.296;10.602;2024-02-21T17:52:13;9.70;51.90
975;DHT22;6115;49.296;10.602;2024-02-21T17:57:14;9.70;51.80
975;DHT22;6115;49.296;10.602;2024-02-21T18:02:15;9.70;51.90
975;DHT22;6115;49.296;10.602;2024-02-21T18:07:20;9.70;51.70
975;DHT22;6115;49.296;10.602;2024-02-21T18:12:24;9.70;51.40
975;DHT22;6115;49.296;10.602;2024-02-21T18:17:24;9.70;51.30
975;DHT22;6115;49.296;10.602;2024-02-21T18:22:25;9.70;51.40
975;DHT22;6115;49.296;10.602;2024-02-21T18:27:27;9.70;51.10
975;DHT22;6115;49.296;10.602;2024-02-21T18:32:28;9.70;51.20
975;DHT22;6115;49.296;10.602;2024-02-21T18:37:28;9.80;51.30
975;DHT22;6115;49.296;10.602;2024-02-21T18:42:29;9.70;51.10
975;DHT22;6115;49.296;10.602;2024-02-21T18:47:31;9.60;51.10
975;DHT22;6115;49.296;10.602;2024-02-21T18:52:32;9.60;51.10
975;DHT22;6115;49.296;10.602;2024-02-21T18:57:32;9.60;51.10
975;DHT22;6115;49.296;10.602;2024-02-21T19:02:34;9.60;51.10
975;DHT22;6115;49.296;10.602;2024-02-21T19:07:34;9.60;51.10
975;DHT22;6115;49.296;10.602;2024-02-21T19:12:35;9.60;50.70
975;DHT22;6115;49.296;10.602;2024-02-21T19:17:36;9.70;50.70
975;DHT22;6115;49.296;10.602;2024-02-21T19:22:38;9.60;50.70
975;DHT22;6115;49.296;10.602;2024-02-21T19:27:40;9.70;50.90
975;DHT22;6115;49.296;10.602;2024-02-21T19:32:41;9.70;50.90
975;DHT22;6115;49.296;10.602;2024-02-21T19:37:41;9.70;51.00
975;DHT22;6115;49.296;10.602;2024-02-21T19:42:43;9.70;50.90
975;DHT22;6115;49.296;10.602;2024-02-21T19:47:44;9.70;51.10
975;DHT22;6115;49.296;10.602;2024-02-21T19:52:44;9.70;51.20
975;DHT22;6115;49.296;10.602;2024-02-21T19:57:45;9.70;51.20
975;DHT22;6115;49.296;10.602;2024-02-21T20:02:46;9.70;51.10
975;DHT22;6115;49.296;10.602;2024-02-21T20:07:49;9.70;51.10
975;DHT22;6115;49.296;10.602;2024-02-21T20:12:49;9.70;51.10
975;DHT22;6115;49.296;10.602;2024-02-21T20:17:50;9.60;51.10
975;DHT22;6115;49.296;10.602;2024-02-21T20:22:50;9.60;51.10
975;DHT22;6115;49.296;10.602;2024-02-21T20:27:51;9.60;51.10
975;DHT22;6115;49.296;10.602;2024-02-21T20:32:52;9.60;51.10
975;DHT22;6115;49.296;10.602;2024-02-21T20:37:53;9.70;51.10
975;DHT22;6115;49.296;10.602;2024-02-21T20:42:53;9.70;51.10
975;DHT22;6115;49.296;10.602;2024-02-21T20:47:54;9.60;51.10
975;DHT22;6115;49.296;10.602;2024-02-21T20:52:54;9.50;51.00
975;DHT22;6115;49.296;10.602;2024-02-21T20:57:55;9.50;51.00
975;DHT22;6115;49.296;10.602;2024-02-21T21:02:55;9.50;51.00
975;DHT22;6115;49.296;10.602;2024-02-21T21:07:56;9.50;51.00
975;DHT22;6115;49.296;10.602;2024-02-21T21:12:57;9.40;50.90
975;DHT22;6115;49.296;10.602;2024-02-21T21:17:59;9.40;51.60
975;DHT22;6115;49.296;10.602;2024-02-21T21:22:59;9.40;50.90
975;DHT22;6115;49.296;10.602;2024-02-21T21:28:00;9.40;50.90
975;DHT22;6115;49.296;10.602;2024-02-21T21:33:01;9.50;51.00
975;DHT22;6115;49.296;10.602;2024-02-21T21:38:04;9.40;50.90
975;DHT22;6115;49.296;10.602;2024-02-21T21:43:04;9.40;50.90
975;DHT22;6115;49.296;10.602;2024-02-21T21:48:05;9.40;50.80
975;DHT22;6115;49.296;10.602;2024-02-21T21:53:06;9.40;50.50
975;DHT22;6115;49.296;10.602;2024-02-21T21:58:07;9.30;50.80
975;DHT22;6115;49.296;10.602;2024-02-21T22:03:09;9.40;50.70
975;DHT22;6115;49.296;10.602;2024-02-21T22:08:12;9.40;50.30
975;DHT22;6115;49.296;10.602;2024-02-21T22:13:13;9.50;50.00
975;DHT22;6115;49.296;10.602;2024-02-21T22:18:14;9.50;50.10
975;DHT22;6115;49.296;10.602;2024-02-21T22:23:14;9.50;49.90
975;DHT22;6115;49.296;10.602;2024-02-21T22:28:16;9.50;49.10
975;DHT22;6115;49.296;10.602;2024-02-21T22:33:18;9.60;48.10
975;DHT22;6115;49.296;10.602;2024-02-21T22:38:19;9.70;47.30
975;DHT22;6115;49.296;10.602;2024-02-21T22:43:19;9.90;46.90
975;DHT22;6115;49.296;10.602;2024-02-21T22:48:20;10.20;45.90
975;DHT22;6115;49.296;10.602;2024-02-21T22:53:21;10.50;45.40
975;DHT22;6115;49.296;10.602;2024-02-21T22:58:21;10.60;45.20
975;DHT22;6115;49.296;10.602;2024-02-21T23:03:22;10.70;45.40
975;DHT22;6115;49.296;10.602;2024-02-21T23:08:23;10.70;45.70
975;DHT22;6115;49.296;10.602;2024-02-21T23:13:23;10.70;45.90
975;DHT22;6115;49.296;10.602;2024-02-21T23:18:24;10.60;46.50
975;DHT22;6115;49.296;10.602;2024-02-21T23:23:24;10.40;47.60
975;DHT22;6115;49.296;10.602;2024-02-21T23:28:25;10.30;49.00
975;DHT22;6115;49.296;10.602;2024-02-21T23:33:25;10.10;50.60
975;DHT22;6115;49.296;10.602;2024-02-21T23:38:34;9.70;52.60
975;DHT22;6115;49.296;10.602;2024-02-21T23:43:40;9.50;54.80
975;DHT22;6115;49.296;10.602;2024-02-21T23:48:41;9.40;55.70
975;DHT22;6115;49.296;10.602;2024-02-21T23:53:42;9.20;56.60
975;DHT22;6115;49.296;10.602;2024-02-21T23:58:43;9.20;57.10
